This is the latest recevied weather packets stored in our database for station/object WA4IKQ. If no packets are shown the sender has not sent any weather packets the latest 10 day(s).
| Time | Temp. | Humidity | Pressure | Rain* | Wind** | Luminosity | Snow |
|---|---|---|---|---|---|---|---|
| 1777766951 | 22.22° C | 87% | 1010.3 hPa | 0 mm | 0.89 m/s, 240° | - | - |
| 1777766644 | 22.22° C | 87% | 1010.3 hPa | 0 mm | 0.89 m/s, 240° | - | - |
| 1777764746 | 21.67° C | 87% | 1010.2 hPa | 0 mm | 1.79 m/s, 208° | - | - |
| 1777764103 | 21.67° C | 87% | 1010.4 hPa | 0 mm | 2.24 m/s, 207° | - | - |
| 1777761321 | 21.67° C | 88% | 1010.7 hPa | 0 mm | 3.13 m/s, 270° | - | - |
| 1777761008 | 21.67° C | 88% | 1009.5 hPa | 0 mm | 1.79 m/s, 205° | - | - |
| 1777760943 | 21.67° C | 88% | 1009.5 hPa | 0 mm | 1.79 m/s, 205° | - | - |
| 1777760747 | 21.67° C | 88% | 1009.7 hPa | 0 mm | 1.79 m/s, 156° | - | - |
| 1777760643 | 21.67° C | 88% | 1009.7 hPa | 0 mm | 1.79 m/s, 156° | - | - |
| 1777760342 | 21.67° C | 88% | 1009.9 hPa | 0 mm | 2.24 m/s, 181° | - | - |
| 1777760009 | 21.67° C | 88% | 1010 hPa | 0 mm | 2.68 m/s, 172° | - | - |
| 1777759742 | 21.67° C | 88% | 1010 hPa | 0 mm | 2.68 m/s, 172° | - | - |
| 1777759601 | 22.22° C | 87% | 1010.1 hPa | 0 mm | 2.24 m/s, 229° | - | - |
| 1777759443 | 22.22° C | 87% | 1010.1 hPa | 0 mm | 2.24 m/s, 229° | - | - |
| 1777758241 | 22.22° C | 88% | 1010.2 hPa | 0 mm | 3.13 m/s, 217° | - | - |
| 1777757941 | 22.22° C | 88% | 1010.4 hPa | 0 mm | 1.79 m/s, 204° | - | - |
| 1777757641 | 21.67° C | 88% | 1010.4 hPa | 0 mm | 1.34 m/s, 267° | - | - |
| 1777757342 | 21.67° C | 89% | 1010 hPa | 0 mm | 0 m/s | - | - |
| 1777757178 | 21.67° C | 89% | 1010 hPa | 0 mm | 2.24 m/s, 207° | - | - |
| 1777757042 | 21.67° C | 89% | 1010 hPa | 0 mm | 2.24 m/s, 207° | - | - |
| 1777756750 | 21.67° C | 89% | 1010 hPa | 0 mm | 2.68 m/s, 204° | - | - |
| 1777756529 | 21.67° C | 89% | 1009.7 hPa | 0 mm | 0 m/s | - | - |
| 1777756223 | 21.67° C | 89% | 1009.4 hPa | 0 mm | 0.89 m/s, 193° | - | - |
| 1777756141 | 21.67° C | 89% | 1009.4 hPa | 0 mm | 0.89 m/s, 193° | - | - |
| 1777755916 | 21.67° C | 88% | 1009.4 hPa | 0 mm | 0.45 m/s, 166° | - | - |
* Rain latest hour (hover to see other rain measurements)
** Current wind speed in m/s (hover to see current wind gust speed)